createdAt,value
2023-05-20T00:00:19.528Z,39.90
2023-05-20T00:01:22.525Z,39.90
2023-05-20T00:02:25.294Z,39.90
2023-05-20T00:03:29.903Z,40.00
2023-05-20T00:04:32.370Z,40.00
2023-05-20T00:05:34.715Z,39.90
2023-05-20T00:06:37.452Z,40.00
2023-05-20T00:07:41.523Z,39.90
2023-05-20T00:08:44.237Z,39.90
2023-05-20T00:09:46.720Z,40.00
2023-05-20T00:10:49.112Z,40.00
2023-05-20T00:11:51.460Z,40.00
2023-05-20T00:12:55.370Z,40.00
2023-05-20T00:13:57.792Z,40.00
2023-05-20T00:15:00.259Z,40.00
2023-05-20T00:16:03.376Z,40.00
2023-05-20T00:17:06.010Z,40.00
2023-05-20T00:18:08.777Z,40.00
2023-05-20T00:19:11.480Z,40.00
2023-05-20T00:20:13.961Z,40.00
2023-05-20T00:21:17.167Z,40.00
2023-05-20T00:22:20.790Z,40.00
2023-05-20T00:23:23.568Z,40.00
2023-05-20T00:24:26.058Z,40.00
2023-05-20T00:25:28.601Z,40.00
2023-05-20T00:26:31.419Z,40.00
2023-05-20T00:27:34.571Z,40.00
2023-05-20T00:28:41.768Z,40.00
2023-05-20T00:29:44.062Z,40.00
2023-05-20T00:30:46.593Z,40.10
2023-05-20T00:31:49.013Z,40.10
2023-05-20T00:32:51.452Z,40.10
2023-05-20T00:33:56.373Z,40.00
2023-05-20T00:34:59.632Z,40.10
2023-05-20T00:36:03.779Z,40.10
2023-05-20T00:37:06.208Z,40.10
2023-05-20T00:38:16.245Z,40.10
2023-05-20T00:39:18.680Z,40.10
2023-05-20T00:40:23.502Z,40.10
2023-05-20T00:41:27.531Z,40.00
2023-05-20T00:42:29.977Z,40.00
2023-05-20T00:43:32.583Z,40.10
2023-05-20T00:44:34.920Z,40.60
2023-05-20T00:45:38.597Z,40.00
2023-05-20T00:46:41.361Z,40.10
2023-05-20T00:47:44.346Z,40.10
2023-05-20T00:48:47.188Z,40.10
2023-05-20T00:49:51.026Z,40.10
2023-05-20T00:50:54.495Z,40.10
2023-05-20T00:51:56.893Z,40.20
2023-05-20T00:53:00.371Z,40.10
2023-05-20T00:54:03.211Z,40.20
2023-05-20T00:55:05.679Z,40.10
2023-05-20T00:56:08.820Z,40.10
2023-05-20T00:57:11.941Z,40.20
2023-05-20T00:58:14.573Z,40.10
2023-05-20T00:59:16.899Z,40.20
2023-05-20T01:00:19.174Z,40.10
2023-05-20T01:01:22.079Z,40.20
2023-05-20T01:02:24.768Z,40.20
2023-05-20T01:03:30.230Z,40.20
2023-05-20T01:04:34.317Z,40.20
2023-05-20T01:05:39.252Z,40.20
2023-05-20T01:06:44.643Z,40.20
2023-05-20T01:07:47.031Z,40.20
2023-05-20T01:08:49.820Z,40.20
2023-05-20T01:09:54.284Z,40.20
2023-05-20T01:11:11.644Z,40.20
2023-05-20T01:12:27.475Z,40.20
2023-05-20T01:13:34.488Z,40.20
2023-05-20T01:14:40.035Z,40.30
2023-05-20T01:15:47.450Z,40.30
2023-05-20T01:16:51.909Z,40.20
2023-05-20T01:18:01.623Z,40.30
2023-05-20T01:19:06.972Z,40.30
2023-05-20T01:20:11.197Z,40.20
2023-05-20T01:21:13.952Z,40.30
2023-05-20T01:22:17.325Z,40.20
2023-05-20T01:23:22.011Z,40.30
2023-05-20T01:24:24.307Z,40.30
2023-05-20T01:25:27.040Z,40.30
2023-05-20T01:26:29.415Z,40.30
2023-05-20T01:27:31.748Z,40.30
2023-05-20T01:28:36.924Z,40.30
2023-05-20T01:29:40.330Z,40.30
2023-05-20T01:30:47.883Z,40.30
2023-05-20T01:31:51.898Z,40.40
2023-05-20T01:32:57.426Z,40.30
2023-05-20T01:34:01.045Z,40.30
2023-05-20T01:35:05.222Z,40.30
2023-05-20T01:36:10.488Z,40.30
2023-05-20T01:37:13.544Z,40.30
2023-05-20T01:38:18.979Z,40.30
2023-05-20T01:39:23.491Z,40.30
2023-05-20T01:40:26.995Z,40.40
2023-05-20T01:41:29.975Z,40.40
2023-05-20T01:42:32.726Z,40.40
2023-05-20T01:43:35.768Z,40.40
2023-05-20T01:44:39.648Z,40.30
2023-05-20T01:45:44.384Z,40.40
2023-05-20T01:46:51.748Z,40.40
2023-05-20T01:47:54.359Z,40.40
2023-05-20T01:48:58.584Z,40.40
2023-05-20T01:50:01.016Z,40.40
2023-05-20T01:51:03.486Z,40.40
2023-05-20T01:52:06.816Z,40.50
2023-05-20T01:53:09.943Z,40.40
2023-05-20T01:54:12.509Z,40.40
2023-05-20T01:55:17.505Z,40.50
2023-05-20T01:56:22.152Z,40.50
2023-05-20T01:57:24.908Z,40.50
2023-05-20T01:58:29.094Z,40.40
2023-05-20T01:59:31.825Z,40.50
2023-05-20T02:00:35.877Z,40.50
2023-05-20T02:01:38.729Z,40.50
2023-05-20T02:02:42.867Z,40.50
2023-05-20T02:03:47.986Z,40.50
2023-05-20T02:04:51.308Z,40.50
2023-05-20T02:05:53.802Z,40.50
2023-05-20T02:06:58.413Z,40.50
2023-05-20T02:08:01.528Z,40.50
2023-05-20T02:09:05.693Z,40.50
2023-05-20T02:10:08.829Z,40.60
2023-05-20T02:11:12.812Z,40.60
2023-05-20T02:12:18.587Z,40.60
2023-05-20T02:13:20.887Z,40.50
2023-05-20T02:14:24.083Z,40.60
2023-05-20T02:15:29.106Z,40.60
2023-05-20T02:16:32.702Z,40.60
2023-05-20T02:17:37.804Z,40.60
2023-05-20T02:18:40.179Z,40.60
2023-05-20T02:19:44.496Z,40.60
2023-05-20T02:20:47.517Z,40.60
2023-05-20T02:21:50.713Z,40.60
2023-05-20T02:22:53.024Z,40.60
2023-05-20T02:23:55.467Z,40.60
2023-05-20T02:24:57.820Z,40.60
2023-05-20T02:26:00.614Z,40.60
2023-05-20T02:27:04.810Z,40.60
2023-05-20T02:28:10.837Z,40.60
2023-05-20T02:29:13.191Z,40.70
2023-05-20T02:30:16.247Z,40.70
2023-05-20T02:31:19.575Z,40.70
2023-05-20T02:32:23.877Z,40.70
2023-05-20T02:33:29.509Z,40.70
2023-05-20T02:34:32.938Z,40.70
2023-05-20T02:35:35.749Z,40.70
2023-05-20T02:36:38.190Z,40.70
2023-05-20T02:37:40.929Z,40.70
2023-05-20T02:38:45.283Z,40.70
2023-05-20T02:39:48.819Z,40.70
2023-05-20T02:40:51.153Z,40.70
2023-05-20T02:41:56.382Z,40.80
2023-05-20T02:42:59.522Z,40.80
2023-05-20T02:44:03.452Z,41.30
2023-05-20T02:45:08.937Z,40.80
2023-05-20T02:46:11.891Z,40.80
2023-05-20T02:47:15.555Z,40.80
2023-05-20T02:48:18.357Z,40.80
2023-05-20T02:49:24.912Z,40.80
2023-05-20T02:50:28.717Z,40.80
2023-05-20T02:51:34.118Z,40.80
2023-05-20T02:52:37.393Z,40.80
2023-05-20T02:53:41.783Z,40.80
2023-05-20T02:54:44.864Z,40.80
2023-05-20T02:55:48.705Z,40.90
2023-05-20T02:56:51.292Z,40.90
2023-05-20T02:57:55.836Z,40.90
2023-05-20T02:59:00.417Z,40.90
2023-05-20T03:00:04.858Z,40.90
2023-05-20T03:01:07.670Z,40.90
2023-05-20T03:02:10.597Z,40.80
2023-05-20T03:03:14.143Z,40.90
2023-05-20T03:04:19.382Z,40.90
2023-05-20T03:05:22.747Z,40.90
2023-05-20T03:06:30.041Z,40.90
2023-05-20T03:07:34.401Z,40.90
2023-05-20T03:08:36.785Z,40.90
2023-05-20T03:09:40.495Z,40.90
2023-05-20T03:10:45.424Z,40.90
2023-05-20T03:11:48.509Z,41.00
2023-05-20T03:12:51.361Z,40.90
2023-05-20T03:13:53.822Z,40.90
2023-05-20T03:14:56.316Z,41.00
2023-05-20T03:16:01.577Z,41.00
2023-05-20T03:17:03.987Z,40.90
2023-05-20T03:18:08.572Z,40.90
2023-05-20T03:19:11.905Z,40.90
2023-05-20T03:20:15.711Z,41.00
2023-05-20T03:21:18.532Z,41.00
2023-05-20T03:22:21.291Z,41.00
2023-05-20T03:23:24.175Z,41.10
2023-05-20T03:24:28.065Z,41.00
2023-05-20T03:25:31.182Z,41.00
2023-05-20T03:26:37.575Z,41.00
2023-05-20T03:27:41.834Z,41.00
2023-05-20T03:28:45.002Z,41.10
2023-05-20T03:29:50.625Z,41.10
2023-05-20T03:30:53.354Z,41.00
2023-05-20T03:31:57.731Z,41.10
2023-05-20T03:33:03.055Z,41.10
2023-05-20T03:34:05.535Z,41.10
2023-05-20T03:35:09.734Z,41.10
2023-05-20T03:36:12.572Z,41.10
2023-05-20T03:37:15.434Z,41.00
2023-05-20T03:38:17.867Z,41.10
2023-05-20T03:39:20.708Z,41.10
2023-05-20T03:40:23.526Z,41.20
2023-05-20T03:41:26.596Z,41.20
2023-05-20T03:42:29.622Z,41.20
2023-05-20T03:43:32.040Z,41.20
2023-05-20T03:44:34.801Z,41.20
2023-05-20T03:45:38.151Z,41.20
2023-05-20T03:46:42.493Z,41.20
2023-05-20T03:47:46.453Z,41.20
2023-05-20T03:48:49.516Z,41.20
2023-05-20T03:49:54.348Z,41.20
2023-05-20T03:50:57.389Z,41.20
2023-05-20T03:51:59.927Z,41.20
2023-05-20T03:53:02.536Z,41.20
2023-05-20T03:54:11.223Z,41.20
2023-05-20T03:55:16.394Z,41.30
2023-05-20T03:56:19.728Z,41.30
2023-05-20T03:57:22.576Z,41.30
2023-05-20T03:58:26.382Z,41.20
2023-05-20T03:59:29.233Z,41.30
2023-05-20T04:00:35.472Z,41.30
2023-05-20T04:01:37.827Z,41.30
2023-05-20T04:02:40.589Z,41.90
2023-05-20T04:03:43.880Z,41.30
2023-05-20T04:04:49.010Z,41.30
2023-05-20T04:05:51.393Z,41.40
2023-05-20T04:06:56.859Z,41.30
2023-05-20T04:07:59.646Z,41.30
2023-05-20T04:09:02.672Z,41.40
2023-05-20T04:10:06.201Z,41.30
2023-05-20T04:11:09.906Z,41.30
2023-05-20T04:12:13.958Z,41.30
2023-05-20T04:13:17.172Z,41.40
2023-05-20T04:14:21.664Z,41.30
2023-05-20T04:15:25.294Z,41.30
2023-05-20T04:16:32.515Z,41.30
2023-05-20T04:17:37.717Z,41.40
2023-05-20T04:18:41.125Z,41.30
2023-05-20T04:19:45.142Z,41.40
2023-05-20T04:20:48.551Z,41.30
2023-05-20T04:21:51.790Z,41.50
2023-05-20T04:22:56.221Z,41.40
2023-05-20T04:23:59.035Z,41.50
2023-05-20T04:25:03.441Z,41.40
2023-05-20T04:26:07.928Z,41.40
2023-05-20T04:27:11.148Z,41.50
2023-05-20T04:28:16.309Z,41.50
2023-05-20T04:29:19.286Z,41.50
2023-05-20T04:30:22.101Z,41.50
2023-05-20T04:31:26.973Z,41.50
2023-05-20T04:32:30.371Z,41.50
2023-05-20T04:33:33.298Z,41.50
2023-05-20T04:34:37.450Z,41.50
2023-05-20T04:35:41.801Z,41.50
2023-05-20T04:36:47.208Z,41.50
2023-05-20T04:37:54.096Z,41.60
2023-05-20T04:38:57.746Z,41.50
2023-05-20T04:40:03.122Z,41.60
2023-05-20T04:41:07.148Z,41.60
2023-05-20T04:42:11.438Z,41.60
2023-05-20T04:43:15.048Z,41.70
2023-05-20T04:44:20.096Z,41.60
2023-05-20T04:45:23.411Z,41.60
2023-05-20T04:46:26.797Z,41.70
2023-05-20T04:47:32.062Z,41.60
2023-05-20T04:48:38.365Z,41.60
2023-05-20T04:49:42.422Z,41.60
2023-05-20T04:50:54.805Z,41.60
2023-05-20T04:51:58.691Z,41.70
2023-05-20T04:53:01.064Z,41.70
2023-05-20T04:54:03.820Z,41.70
2023-05-20T04:55:08.211Z,41.70
2023-05-20T04:56:11.751Z,41.70
2023-05-20T04:57:14.096Z,41.70
2023-05-20T04:58:18.807Z,41.80
2023-05-20T04:59:21.442Z,41.80
2023-05-20T05:00:23.938Z,41.70
2023-05-20T05:01:26.285Z,41.80
2023-05-20T05:02:29.179Z,41.70
2023-05-20T05:03:31.569Z,41.80
2023-05-20T05:04:37.369Z,41.80
2023-05-20T05:05:40.730Z,41.80
2023-05-20T05:06:43.907Z,41.80
2023-05-20T05:07:47.431Z,41.80
2023-05-20T05:08:49.978Z,41.80
2023-05-20T05:09:52.337Z,41.80
2023-05-20T05:10:54.645Z,41.80
2023-05-20T05:11:57.515Z,41.80
2023-05-20T05:13:00.597Z,41.80
2023-05-20T05:14:05.273Z,41.80
2023-05-20T05:15:08.271Z,41.90
2023-05-20T05:16:11.943Z,41.90
2023-05-20T05:17:14.338Z,41.90
2023-05-20T05:18:19.463Z,41.90
2023-05-20T05:19:22.970Z,41.90
2023-05-20T05:20:27.960Z,41.90
2023-05-20T05:21:31.669Z,41.90
2023-05-20T05:22:36.979Z,41.90
2023-05-20T05:23:42.594Z,41.90
2023-05-20T05:24:47.214Z,42.60
2023-05-20T05:25:53.192Z,42.00
2023-05-20T05:26:56.721Z,42.00
2023-05-20T05:27:59.742Z,42.00
2023-05-20T05:29:03.520Z,42.00
2023-05-20T05:30:07.226Z,42.10
2023-05-20T05:31:09.690Z,42.00
2023-05-20T05:32:12.903Z,42.00
2023-05-20T05:33:15.764Z,42.00
2023-05-20T05:34:18.274Z,42.10
2023-05-20T05:35:21.135Z,42.10
2023-05-20T05:36:24.221Z,42.10
2023-05-20T05:37:26.772Z,42.10
2023-05-20T05:38:29.268Z,42.10
2023-05-20T05:39:32.131Z,42.10
2023-05-20T05:40:36.253Z,42.10
2023-05-20T05:41:39.439Z,42.10
2023-05-20T05:42:42.890Z,42.10
2023-05-20T05:43:45.540Z,42.10
2023-05-20T05:44:48.287Z,42.20
2023-05-20T05:45:51.681Z,42.10
2023-05-20T05:46:54.504Z,42.10
2023-05-20T05:47:57.282Z,42.10
2023-05-20T05:48:59.632Z,42.20
2023-05-20T05:50:01.944Z,42.10
2023-05-20T05:51:07.564Z,42.20
2023-05-20T05:52:11.427Z,42.20
2023-05-20T05:53:13.880Z,42.20
2023-05-20T05:54:20.490Z,42.20
2023-05-20T05:55:24.441Z,42.20
2023-05-20T05:56:26.708Z,42.20
2023-05-20T05:57:29.112Z,42.30
2023-05-20T05:58:32.012Z,42.30
2023-05-20T05:59:36.776Z,42.30
2023-05-20T06:00:40.910Z,42.30
2023-05-20T06:01:43.428Z,42.30
2023-05-20T06:02:46.594Z,42.30
2023-05-20T06:03:58.964Z,42.30
2023-05-20T06:05:04.750Z,42.30
2023-05-20T06:06:08.566Z,42.40
2023-05-20T06:07:12.094Z,42.30
2023-05-20T06:08:14.466Z,42.30
2023-05-20T06:09:16.842Z,42.30
2023-05-20T06:10:19.651Z,42.30
2023-05-20T06:11:22.980Z,42.30
2023-05-20T06:12:26.001Z,42.30
2023-05-20T06:13:28.899Z,42.30
2023-05-20T06:14:32.779Z,42.40
2023-05-20T06:15:36.842Z,42.40
2023-05-20T06:16:39.553Z,42.40
2023-05-20T06:17:44.612Z,42.40
2023-05-20T06:18:47.690Z,42.40
2023-05-20T06:19:50.056Z,42.40
2023-05-20T06:20:58.705Z,42.40
2023-05-20T06:22:01.091Z,42.50
2023-05-20T06:23:03.854Z,42.40
2023-05-20T06:24:15.136Z,42.40
2023-05-20T06:25:19.981Z,42.40
2023-05-20T06:26:22.764Z,42.40
2023-05-20T06:27:25.674Z,42.50
2023-05-20T06:28:28.326Z,42.40
2023-05-20T06:29:31.455Z,42.50
2023-05-20T06:30:33.845Z,42.50
2023-05-20T06:31:36.858Z,42.50
2023-05-20T06:32:39.446Z,42.50
2023-05-20T06:33:42.593Z,42.40
2023-05-20T06:34:49.049Z,42.50
2023-05-20T06:35:52.898Z,42.50
2023-05-20T06:36:56.520Z,42.50
2023-05-20T06:37:59.039Z,42.50
2023-05-20T06:39:03.756Z,42.50
2023-05-20T06:40:09.302Z,42.50
2023-05-20T06:41:32.193Z,42.50
2023-05-20T06:42:34.877Z,42.50
2023-05-20T06:43:41.753Z,42.50
2023-05-20T06:45:10.553Z,42.50
2023-05-20T06:46:33.521Z,42.50
2023-05-20T06:47:50.440Z,42.60
2023-05-20T06:48:52.849Z,42.60
2023-05-20T06:49:56.422Z,42.60
2023-05-20T06:50:59.043Z,42.60
2023-05-20T06:52:02.506Z,42.60
2023-05-20T06:53:05.162Z,42.60
2023-05-20T06:54:09.521Z,42.60
2023-05-20T06:55:11.989Z,42.60
2023-05-20T06:56:15.741Z,42.60
2023-05-20T06:57:18.703Z,42.50
2023-05-20T06:58:21.166Z,42.60
2023-05-20T06:59:24.524Z,42.60
2023-05-20T07:00:31.147Z,42.60
2023-05-20T07:01:33.546Z,42.70
2023-05-20T07:02:37.005Z,42.70
2023-05-20T07:03:40.703Z,42.70
2023-05-20T07:04:43.294Z,42.70
2023-05-20T07:05:47.069Z,42.70
2023-05-20T07:06:49.730Z,42.70
2023-05-20T07:07:57.873Z,42.70
2023-05-20T07:09:02.158Z,42.70
2023-05-20T07:10:05.877Z,42.70
2023-05-20T07:11:10.704Z,42.70
2023-05-20T07:12:13.064Z,42.70
2023-05-20T07:13:17.892Z,42.70
2023-05-20T07:14:24.653Z,42.70
2023-05-20T07:15:29.177Z,42.70
2023-05-20T07:16:32.568Z,42.80
2023-05-20T07:17:35.190Z,42.70
2023-05-20T07:18:37.575Z,42.80
2023-05-20T07:19:42.582Z,42.80
2023-05-20T07:20:45.722Z,42.80
2023-05-20T07:22:00.729Z,42.80
2023-05-20T07:23:28.647Z,42.80
2023-05-20T07:24:34.964Z,42.80
2023-05-20T07:25:40.101Z,42.90
2023-05-20T07:26:42.658Z,42.80
2023-05-20T07:27:48.162Z,42.80
2023-05-20T07:28:51.636Z,42.80
2023-05-20T07:29:53.915Z,42.90
2023-05-20T07:30:59.656Z,42.90
2023-05-20T07:32:06.757Z,42.90
2023-05-20T07:33:09.973Z,42.90
2023-05-20T07:34:12.464Z,42.80
2023-05-20T07:35:16.524Z,42.90
2023-05-20T07:36:19.401Z,42.90
2023-05-20T07:37:25.484Z,42.90
2023-05-20T07:38:28.446Z,42.90
2023-05-20T07:39:36.685Z,43.50
2023-05-20T07:40:42.156Z,43.00
2023-05-20T07:41:47.138Z,43.00
2023-05-20T07:42:50.950Z,43.00
2023-05-20T07:43:53.244Z,43.00
2023-05-20T07:44:55.900Z,43.00
2023-05-20T07:45:58.568Z,43.00
2023-05-20T07:47:03.739Z,43.00
2023-05-20T07:48:08.877Z,43.00
2023-05-20T07:49:13.068Z,43.00
2023-05-20T07:50:16.015Z,43.00
2023-05-20T07:51:19.596Z,43.00
2023-05-20T07:52:51.834Z,43.00
2023-05-20T07:54:03.920Z,43.00
2023-05-20T07:55:06.427Z,43.00
2023-05-20T07:56:10.495Z,43.10
2023-05-20T07:57:13.639Z,43.10
2023-05-20T07:58:16.878Z,43.00
2023-05-20T07:59:21.449Z,43.10
2023-05-20T08:00:30.718Z,43.10
2023-05-20T08:01:42.486Z,43.10
2023-05-20T08:02:51.903Z,43.10
2023-05-20T08:04:01.135Z,43.10
2023-05-20T08:05:07.095Z,43.10
2023-05-20T08:06:09.742Z,43.10
2023-05-20T08:07:13.028Z,43.10
2023-05-20T08:08:29.595Z,43.10
2023-05-20T08:09:58.034Z,43.10
2023-05-20T08:11:02.390Z,43.10
2023-05-20T08:12:06.483Z,43.10
2023-05-20T08:13:09.188Z,43.20
2023-05-20T08:14:13.903Z,43.20
2023-05-20T08:15:19.633Z,43.20
2023-05-20T08:16:25.083Z,43.20
2023-05-20T08:17:27.445Z,43.20
2023-05-20T08:18:29.999Z,43.20
2023-05-20T08:19:32.760Z,43.20
2023-05-20T08:20:35.576Z,43.20
2023-05-20T08:21:38.437Z,43.20
2023-05-20T08:22:42.402Z,43.30
2023-05-20T08:23:44.778Z,43.20
2023-05-20T08:24:51.821Z,43.30
2023-05-20T08:25:57.586Z,43.30
2023-05-20T08:27:01.563Z,43.30
2023-05-20T08:28:07.374Z,43.30
2023-05-20T08:29:12.555Z,43.90
2023-05-20T08:30:14.876Z,43.30
2023-05-20T08:31:18.270Z,43.30
2023-05-20T08:32:21.102Z,43.30
2023-05-20T08:33:25.958Z,43.30
2023-05-20T08:34:28.619Z,43.40
2023-05-20T08:35:31.522Z,43.40
2023-05-20T08:36:34.973Z,43.30
2023-05-20T08:37:38.448Z,43.40
2023-05-20T08:38:40.849Z,43.30
2023-05-20T08:39:45.160Z,43.50
2023-05-20T08:40:57.921Z,43.40
2023-05-20T08:42:01.250Z,43.40
2023-05-20T08:43:04.347Z,43.50
2023-05-20T08:44:08.259Z,43.50
2023-05-20T08:45:12.585Z,43.50
2023-05-20T08:46:18.088Z,43.50
2023-05-20T08:47:21.955Z,44.10
2023-05-20T08:48:27.793Z,43.50
2023-05-20T08:49:30.178Z,43.60
2023-05-20T08:50:32.668Z,43.60
2023-05-20T08:51:36.375Z,43.50
2023-05-20T08:52:49.457Z,43.60
2023-05-20T08:53:51.877Z,43.50
2023-05-20T08:54:54.878Z,43.60
2023-05-20T08:56:01.524Z,43.60
2023-05-20T08:57:06.308Z,43.60
2023-05-20T08:58:09.966Z,43.60
2023-05-20T08:59:12.306Z,43.50
2023-05-20T09:00:17.252Z,43.50
2023-05-20T09:01:19.838Z,43.50
2023-05-20T09:02:25.762Z,43.60
2023-05-20T09:03:28.816Z,43.60
2023-05-20T09:04:31.467Z,43.60
2023-05-20T09:05:34.670Z,43.60
2023-05-20T09:06:45.377Z,43.70
2023-05-20T09:07:49.348Z,43.60
2023-05-20T09:08:53.095Z,43.60
2023-05-20T09:09:55.792Z,43.70
2023-05-20T09:10:58.408Z,43.70
2023-05-20T09:12:04.379Z,43.80
2023-05-20T09:13:07.433Z,43.70
2023-05-20T09:14:12.424Z,43.70
2023-05-20T09:15:15.047Z,43.70
2023-05-20T09:16:17.886Z,43.80
2023-05-20T09:17:21.730Z,43.80
2023-05-20T09:18:26.788Z,43.80
2023-05-20T09:19:29.173Z,43.80
2023-05-20T09:20:37.109Z,43.90
2023-05-20T09:21:43.007Z,43.90
2023-05-20T09:22:45.305Z,43.90
2023-05-20T09:23:51.562Z,43.90
2023-05-20T09:24:54.114Z,44.00
2023-05-20T09:25:57.670Z,43.90
2023-05-20T09:27:00.068Z,44.00
2023-05-20T09:28:06.813Z,43.90
2023-05-20T09:29:09.717Z,44.00
2023-05-20T09:30:14.186Z,44.00
2023-05-20T09:31:16.605Z,44.00
2023-05-20T09:32:24.403Z,44.10
2023-05-20T09:33:32.517Z,44.00
2023-05-20T09:34:35.290Z,44.00
2023-05-20T09:35:38.896Z,44.00
2023-05-20T09:36:42.782Z,44.10
2023-05-20T09:37:48.136Z,44.10
2023-05-20T09:38:57.398Z,44.10
2023-05-20T09:40:04.124Z,44.10
2023-05-20T09:41:08.272Z,44.10
2023-05-20T09:42:15.516Z,44.10
2023-05-20T09:43:19.451Z,44.10
2023-05-20T09:44:22.145Z,44.10
2023-05-20T09:45:24.705Z,44.10
2023-05-20T09:46:27.937Z,44.30
2023-05-20T09:47:31.607Z,44.30
2023-05-20T09:48:39.799Z,44.90
2023-05-20T09:49:44.100Z,44.30
2023-05-20T09:50:46.616Z,44.30
2023-05-20T09:51:49.845Z,44.30
2023-05-20T09:52:55.920Z,44.30
2023-05-20T09:53:59.673Z,44.30
2023-05-20T09:55:02.910Z,44.30
2023-05-20T09:56:05.365Z,44.90
2023-05-20T09:57:08.132Z,44.40
2023-05-20T09:58:11.642Z,44.30
2023-05-20T09:59:16.406Z,44.30
2023-05-20T10:00:22.785Z,44.30
2023-05-20T10:01:25.540Z,44.40
2023-05-20T10:02:28.465Z,44.30
2023-05-20T10:03:33.517Z,44.30
2023-05-20T10:04:37.894Z,44.40
2023-05-20T10:05:52.162Z,44.40
2023-05-20T10:07:11.863Z,44.40
2023-05-20T10:08:39.276Z,44.40
2023-05-20T10:09:56.541Z,44.40
2023-05-20T10:11:23.463Z,44.50
2023-05-20T10:12:30.452Z,44.50
2023-05-20T10:13:45.329Z,44.50
2023-05-20T10:15:11.276Z,44.40
2023-05-20T10:16:27.096Z,44.50
2023-05-20T10:17:46.562Z,44.50
2023-05-20T10:18:48.957Z,44.50
2023-05-20T10:19:57.669Z,44.60
2023-05-20T10:21:00.451Z,44.50
2023-05-20T10:22:08.635Z,44.60
2023-05-20T10:23:20.338Z,44.60
2023-05-20T10:24:29.995Z,44.60
2023-05-20T10:25:32.806Z,44.50
2023-05-20T10:26:41.874Z,44.50
2023-05-20T10:27:48.248Z,44.50
2023-05-20T10:28:52.881Z,44.60
2023-05-20T10:29:58.137Z,44.60
2023-05-20T10:31:02.526Z,44.50
2023-05-20T10:32:05.003Z,44.60
2023-05-20T10:33:09.142Z,44.60
2023-05-20T10:34:15.810Z,44.60
2023-05-20T10:35:21.902Z,44.60
2023-05-20T10:36:26.357Z,44.60
2023-05-20T10:37:34.288Z,44.70
2023-05-20T10:38:37.463Z,44.70
2023-05-20T10:39:40.250Z,44.70
2023-05-20T10:40:43.632Z,44.70
2023-05-20T10:41:46.469Z,44.70
2023-05-20T10:42:49.067Z,44.70
2023-05-20T10:44:01.468Z,44.70
2023-05-20T10:45:04.574Z,44.70
2023-05-20T10:46:10.556Z,44.70
2023-05-20T10:47:25.610Z,44.70
2023-05-20T10:48:34.043Z,44.80
2023-05-20T10:49:39.986Z,44.80
2023-05-20T10:50:42.728Z,44.80
2023-05-20T10:51:46.591Z,44.80
2023-05-20T10:52:48.904Z,44.80
2023-05-20T10:53:58.891Z,44.80
2023-05-20T10:55:01.500Z,44.90
2023-05-20T10:56:04.410Z,44.90
2023-05-20T10:57:09.301Z,44.90
2023-05-20T10:58:14.259Z,44.90
2023-05-20T10:59:17.520Z,44.80
2023-05-20T11:00:20.708Z,45.50
2023-05-20T11:01:24.516Z,44.80
2023-05-20T11:02:29.102Z,44.90
2023-05-20T11:03:31.920Z,44.90
2023-05-20T11:04:34.598Z,44.90
2023-05-20T11:05:39.090Z,44.90
2023-05-20T11:06:49.683Z,44.90
2023-05-20T11:08:00.870Z,44.90
2023-05-20T11:09:04.944Z,45.00
2023-05-20T11:10:11.941Z,45.00
2023-05-20T11:11:15.684Z,45.00
2023-05-20T11:12:19.298Z,45.00
2023-05-20T11:13:21.655Z,45.00
2023-05-20T11:14:25.480Z,45.00
2023-05-20T11:15:31.878Z,45.00
2023-05-20T11:16:34.645Z,45.00
2023-05-20T11:17:51.420Z,45.00
2023-05-20T11:18:53.791Z,45.00
2023-05-20T11:19:56.206Z,45.00
2023-05-20T11:21:00.511Z,45.00
2023-05-20T11:22:02.904Z,45.10
2023-05-20T11:23:06.791Z,45.00
2023-05-20T11:24:09.508Z,45.00
2023-05-20T11:25:14.174Z,45.00
2023-05-20T11:26:16.800Z,45.00
2023-05-20T11:27:20.506Z,45.10
2023-05-20T11:28:24.028Z,45.10
2023-05-20T11:29:26.942Z,45.10
2023-05-20T11:30:30.428Z,45.10
2023-05-20T11:31:34.961Z,45.00
2023-05-20T11:32:37.872Z,45.10
2023-05-20T11:33:43.589Z,45.00
2023-05-20T11:34:46.317Z,45.10
2023-05-20T11:35:52.846Z,45.10
2023-05-20T11:36:59.152Z,45.10
2023-05-20T11:38:06.302Z,45.00
2023-05-20T11:39:11.108Z,45.00
2023-05-20T11:40:14.632Z,45.00
2023-05-20T11:41:18.398Z,45.20
2023-05-20T11:42:22.902Z,45.10
2023-05-20T11:43:25.232Z,45.10
2023-05-20T11:44:27.647Z,45.10
2023-05-20T11:45:40.242Z,45.20
2023-05-20T11:46:43.791Z,45.10
2023-05-20T11:47:46.693Z,45.20
2023-05-20T11:48:53.411Z,45.10
2023-05-20T11:49:58.574Z,45.10
2023-05-20T11:51:02.338Z,45.20
2023-05-20T11:52:07.110Z,45.20
2023-05-20T11:53:11.189Z,45.20
2023-05-20T11:54:14.385Z,45.20
2023-05-20T11:55:17.833Z,45.20
2023-05-20T11:56:21.966Z,45.20
2023-05-20T11:57:24.861Z,45.20
2023-05-20T11:58:30.870Z,45.20
2023-05-20T11:59:33.528Z,45.20
2023-05-20T12:00:50.155Z,45.20
2023-05-20T12:01:54.290Z,45.20
2023-05-20T12:02:58.098Z,45.20
2023-05-20T12:04:01.057Z,45.30
2023-05-20T12:05:06.879Z,45.20
2023-05-20T12:06:11.846Z,45.30
2023-05-20T12:07:15.571Z,45.30
2023-05-20T12:08:18.373Z,45.30
2023-05-20T12:09:23.462Z,45.30
2023-05-20T12:10:26.343Z,45.30
2023-05-20T12:11:28.686Z,45.30
2023-05-20T12:12:31.558Z,45.30
2023-05-20T12:13:35.451Z,45.30
2023-05-20T12:14:39.135Z,45.20
2023-05-20T12:15:46.103Z,45.30
2023-05-20T12:16:48.773Z,45.30
2023-05-20T12:17:52.240Z,45.30
2023-05-20T12:18:55.072Z,45.30
2023-05-20T12:19:58.883Z,45.30
2023-05-20T12:21:03.697Z,45.30
2023-05-20T12:22:06.402Z,45.30
2023-05-20T12:23:08.877Z,45.30
2023-05-20T12:24:12.440Z,45.40
2023-05-20T12:25:16.239Z,45.30
2023-05-20T12:26:19.183Z,45.40
2023-05-20T12:27:21.848Z,45.30
2023-05-20T12:28:26.675Z,45.40
2023-05-20T12:29:29.426Z,45.30
2023-05-20T12:30:31.805Z,45.50
2023-05-20T12:31:35.825Z,45.40
2023-05-20T12:32:38.515Z,45.50
2023-05-20T12:33:41.080Z,45.40
2023-05-20T12:34:43.424Z,45.50
2023-05-20T12:35:46.810Z,45.50
2023-05-20T12:36:49.201Z,45.40
2023-05-20T12:37:51.564Z,45.40
2023-05-20T12:38:53.982Z,45.40
2023-05-20T12:39:56.763Z,45.50
2023-05-20T12:40:59.122Z,45.40
2023-05-20T12:42:01.400Z,45.50
2023-05-20T12:43:04.856Z,45.50
2023-05-20T12:44:10.146Z,45.50
2023-05-20T12:45:14.796Z,45.40
2023-05-20T12:46:17.068Z,45.50
2023-05-20T12:47:20.905Z,45.50
2023-05-20T12:48:23.200Z,45.50
2023-05-20T12:49:25.644Z,45.50
2023-05-20T12:50:30.689Z,45.60
2023-05-20T12:51:33.523Z,45.50
2023-05-20T12:52:38.970Z,45.50
2023-05-20T12:53:41.304Z,45.50
2023-05-20T12:54:45.706Z,45.50
2023-05-20T12:55:47.989Z,45.50
2023-05-20T12:56:50.448Z,45.60
2023-05-20T12:57:54.353Z,45.50
2023-05-20T12:58:58.083Z,45.50
2023-05-20T13:00:00.497Z,45.50
2023-05-20T13:01:02.848Z,45.50
2023-05-20T13:02:05.521Z,45.60
2023-05-20T13:03:08.531Z,45.60
2023-05-20T13:04:11.336Z,45.30
2023-05-20T13:05:15.147Z,45.60
2023-05-20T13:06:17.582Z,45.60
2023-05-20T13:07:20.244Z,45.60
2023-05-20T13:08:22.941Z,45.60
2023-05-20T13:09:26.820Z,45.60
2023-05-20T13:10:29.235Z,45.50
2023-05-20T13:11:33.426Z,45.60
2023-05-20T13:12:37.499Z,45.50
2023-05-20T13:13:43.504Z,45.50
2023-05-20T13:14:46.858Z,45.60
2023-05-20T13:15:51.691Z,45.50
2023-05-20T13:16:55.233Z,45.60
2023-05-20T13:17:57.745Z,45.60
2023-05-20T13:19:01.371Z,45.60
2023-05-20T13:20:05.050Z,45.60
2023-05-20T13:21:08.040Z,45.60
2023-05-20T13:22:10.849Z,45.60
2023-05-20T13:23:13.634Z,45.60
2023-05-20T13:24:16.971Z,45.60
2023-05-20T13:25:21.470Z,45.60
2023-05-20T13:26:24.572Z,45.60
2023-05-20T13:27:27.195Z,45.60
2023-05-20T13:28:29.856Z,45.60
2023-05-20T13:29:32.211Z,45.60
2023-05-20T13:30:35.820Z,45.70
2023-05-20T13:31:39.298Z,45.60
2023-05-20T13:32:41.981Z,45.70
2023-05-20T13:33:44.412Z,45.70
2023-05-20T13:34:47.734Z,45.60
2023-05-20T13:35:51.050Z,45.70
2023-05-20T13:36:54.831Z,45.70
2023-05-20T13:37:57.106Z,45.70
2023-05-20T13:38:59.621Z,45.70
2023-05-20T13:40:01.887Z,45.70
2023-05-20T13:41:05.977Z,45.80
2023-05-20T13:42:09.509Z,45.70
2023-05-20T13:43:11.754Z,45.90
2023-05-20T13:44:14.937Z,45.80
2023-05-20T13:45:18.608Z,45.80
2023-05-20T13:46:21.349Z,45.80
2023-05-20T13:47:24.774Z,45.70
2023-05-20T13:48:27.505Z,45.70
2023-05-20T13:49:30.581Z,45.70